Latest Weather Observations for Keith West

IDS60801

Issued at 4:31 pm CST Thursday 29 June 2017 (issued every 30 minutes, with the page automatically refreshed every 10 minutes)

About weather observations | Map of weather stations | Latest weather observations for SA | Other Formats
Station Details ID: 025557 Name: MUNKORA Lat: -36.11 Lon: 140.33 Height: 27.0 m
Data from the previous 72 hours. | See also: Recent months at Keith West
Date/Time
CST
Temp
°C
App
Temp
°C
Dew
Point
°C
Rel
Hum
%
Delta-T
°C
Wind Press
QNH
hPa
Press
MSL
hPa
Rain since
9am
mm
Dir  Spd
km/h
Gust
km/h
Spd
kts
Gust
kts
29/04:30pm 11.8 9.3 9.7 87 1.1 SW 13 19 7 10 1026.3 1026.4 1.0
29/04:00pm 12.2 9.0 9.8 85 1.2 SW 17 26 9 14 1026.1 1026.2 1.0
29/03:30pm 13.6 9.8 9.8 78 1.9 W 20 28 11 15 1025.7 1025.8 0.4
29/03:00pm 13.9 10.3 9.7 76 2.1 WSW 19 26 10 14 1025.6 1025.7 0.4
29/02:30pm 12.2 8.1 8.5 78 1.8 WSW 20 30 11 16 1025.5 1025.6 0.4
29/02:00pm 12.5 8.6 8.8 78 1.9 WSW 19 24 10 13 1025.5 1025.6 0.4
29/01:30pm 12.2 7.2 7.9 75 2.1 WSW 24 37 13 20 1025.5 1025.6 0.2
29/01:00pm 13.0 10.0 9.1 77 2.0 WSW 15 22 8 12 1025.7 1025.8 0.2
29/12:30pm 12.7 8.4 8.0 73 2.3 W 20 32 11 17 1026.0 1026.1 0.0
29/12:00pm 13.5 10.2 7.9 69 2.8 W 15 24 8 13 1026.2 1026.3 0.0
29/11:30am 13.2 9.5 7.9 70 2.6 WSW 17 22 9 12 1026.6 1026.7 0.0
29/11:00am 12.5 9.7 8.4 76 2.0 WSW 13 20 7 11 1026.9 1027.0 0.0
29/10:30am 10.8 8.6 7.7 81 1.5 W 9 13 5 7 1027.0 1027.1 0.0
29/10:00am 10.1 9.2 9.3 95 0.4 W 4 6 2 3 1027.0 1027.1 0.0
29/09:30am 9.4 8.0 8.8 96 0.3 WNW 6 7 3 4 1027.0 1027.1 0.0
29/09:00am 8.7 7.5 8.1 96 0.3 NW 4 6 2 3 1026.7 1026.8 1.6
29/08:30am 6.8 5.1 6.1 95 0.3 NW 4 6 2 3 1026.4 1026.5 1.6
29/08:00am 6.0 4.2 5.4 96 0.3 NW 4 6 2 3 1026.1 1026.2 1.6
29/07:30am 5.6 4.1 5.0 96 0.3 NW 2 4 1 2 1025.9 1026.0 1.6
29/07:00am 4.5 2.4 3.9 96 0.3 WNW 4 6 2 3 1025.6 1025.7 1.6
29/06:30am 5.3 3.7 4.7 96 0.3 W 2 6 1 3 1025.1 1025.2 1.6
29/06:00am 4.9 2.5 4.3 96 0.3 W 6 6 3 3 1024.9 1025.0 1.6
29/05:30am 4.5 2.0 3.9 96 0.2 WNW 6 6 3 3 1024.7 1024.8 1.6
29/05:00am 5.4 3.5 4.8 96 0.3 NNW 4 6 2 3 1024.4 1024.5 1.6
29/04:30am 5.4 3.1 4.8 96 0.3 W 6 7 3 4 1024.1 1024.2 1.6
29/04:00am 4.8 2.2 4.2 96 0.3 WNW 7 7 4 4 1024.2 1024.3 1.6
29/03:30am 4.7 2.1 4.0 95 0.3 NW 7 7 4 4 1024.1 1024.2 1.6
29/03:00am 5.5 3.2 4.8 95 0.3 NW 6 7 3 4 1024.2 1024.3 1.6
29/02:30am 5.5 3.2 4.8 95 0.3 NNW 6 7 3 4 1024.4 1024.5 1.6
29/02:00am 5.4 2.9 4.7 95 0.3 NNW 7 9 4 5 1024.3 1024.4 1.6
29/01:30am 4.9 2.3 4.3 96 0.3 N 7 9 4 5 1024.1 1024.2 1.6
29/01:00am 5.0 3.0 4.4 96 0.3 WNW 4 6 2 3 1024.0 1024.1 1.6
29/12:30am 3.9 2.1 3.3 96 0.2 WNW 2 2 1 1 1023.9 1024.0 1.6
29/12:00am 3.5 1.6 2.9 96 0.2 WNW 2 2 1 1 1024.1 1024.2 1.6
 
Date/Time
CST
Temp
°C
App
Temp
°C
Dew
Point
°C
Rel
Hum
%
Delta-T
°C
Wind Press
QNH
hPa
Press
MSL
hPa
Rain since
9am
mm
Dir  Spd
km/h
Gust
km/h
Spd
kts
Gust
kts
28/11:30pm 2.8 0.4 2.1 95 0.3 WSW 4 6 2 3 1024.1 1024.2 1.6
28/11:00pm 3.4 0.7 2.7 95 0.3 W 6 7 3 4 1024.0 1024.1 1.6
28/10:30pm 4.6 1.9 3.9 95 0.3 W 7 7 4 4 1024.2 1024.3 1.6
28/10:00pm 3.8 1.0 3.1 95 0.3 WNW 7 7 4 4 1024.1 1024.2 1.6
28/09:30pm 4.6 2.1 3.7 94 0.4 NNE 6 7 3 4 1023.9 1024.0 1.6
28/09:00pm 4.1 1.9 3.2 94 0.4 NNE 4 6 2 3 1023.8 1023.9 1.6
28/08:30pm 5.1 2.7 4.2 94 0.4 N 6 6 3 3 1023.6 1023.7 1.6
28/08:00pm 6.4 5.0 5.5 94 0.4 NNE 2 2 1 1 1023.3 1023.4 1.6
28/07:30pm 6.2 5.1 5.2 93 0.4 CALM 0 0 0 0 1023.2 1023.3 1.6
28/07:00pm 7.2 6.3 6.0 92 0.5 CALM 0 0 0 0 1022.9 1023.0 1.6
28/06:30pm 8.3 6.5 7.2 93 0.5 NE 6 6 3 3 1022.7 1022.8 1.6
28/06:00pm 9.3 8.5 8.2 93 0.5 NE 2 4 1 2 1022.5 1022.6 1.6
28/05:30pm 9.3 8.5 8.1 92 0.6 NE 2 2 1 1 1022.2 1022.3 1.6
28/05:00pm 9.8 9.4 8.2 90 0.8 CALM 0 0 0 0 1021.9 1022.0 1.6
28/04:30pm 10.4 9.3 8.5 88 0.9 NE 4 4 2 2 1021.7 1021.8 1.6
28/04:00pm 11.0 9.6 8.8 86 1.1 NE 6 6 3 3 1021.6 1021.7 1.6
28/03:30pm 12.4 11.8 9.1 80 1.7 WNW 2 4 1 2 1021.7 1021.8 1.6
28/03:00pm 11.7 10.5 9.6 87 1.1 W 6 9 3 5 1021.7 1021.8 1.6
28/02:30pm 11.1 8.1 9.2 88 0.9 SW 15 22 8 12 1021.4 1021.5 1.4
28/02:00pm 12.4 9.2 8.5 77 1.9 W 15 22 8 12 1021.3 1021.4 0.0
28/01:30pm 14.7 11.9 8.4 66 3.2 NW 13 20 7 11 1021.3 1021.4 0.0
28/01:00pm 15.5 12.6 8.3 62 3.6 NW 13 20 7 11 1021.4 1021.5 0.0
28/12:30pm 15.2 12.4 8.7 65 3.3 NW 13 22 7 12 1021.9 1022.0 0.0
28/12:00pm 14.4 12.0 8.8 69 2.8 NW 11 17 6 9 1022.3 1022.4 0.0
28/11:30am 14.4 12.1 9.0 70 2.7 NW 11 15 6 8 1022.7 1022.8 0.0
28/11:00am 13.5 11.5 8.6 72 2.5 NNW 9 15 5 8 1023.0 1023.1 0.0
28/10:30am 12.6 10.0 7.9 73 2.3 NNW 11 15 6 8 1023.1 1023.2 0.0
28/10:00am 11.6 9.4 7.7 77 1.9 N 9 11 5 6 1023.0 1023.1 0.0
28/09:30am 9.7 6.9 6.8 82 1.4 N 11 15 6 8 1023.0 1023.1 0.0
28/09:00am 7.7 6.0 6.0 89 0.8 NNW 4 6 2 3 1022.9 1023.0 0.4
28/08:30am 6.4 4.9 5.0 91 0.6 W 2 4 1 2 1022.8 1022.9 0.4
28/08:00am 6.1 3.7 5.2 94 0.4 N 7 9 4 5 1022.4 1022.5 0.4
28/07:30am 4.7 2.0 3.8 94 0.4 NNE 7 9 4 5 1022.2 1022.3 0.4
28/07:00am 4.4 1.7 3.5 94 0.4 NNE 7 9 4 5 1022.1 1022.2 0.4
28/06:30am 5.0 2.4 4.3 95 0.3 NNE 7 9 4 5 1021.9 1022.0 0.2
28/06:00am 4.9 2.3 4.2 95 0.3 NNE 7 11 4 6 1021.8 1021.9 0.2
28/05:30am 5.0 2.6 4.3 95 0.3 E 6 6 3 3 1021.6 1021.7 0.2
28/05:00am 4.6 2.1 3.6 93 0.4 SE 6 6 3 3 1021.7 1021.8 0.2
28/04:30am 6.0 4.8 4.8 92 0.5 CALM 0 0 0 0 1021.7 1021.8 0.2
28/04:00am 6.7 5.7 5.5 92 0.5 CALM 0 0 0 0 1021.9 1022.0 0.2
28/03:30am 7.0 5.2 5.6 91 0.6 N 4 6 2 3 1021.9 1022.0 0.2
28/03:00am 6.5 4.2 4.8 89 0.7 N 6 7 3 4 1022.2 1022.3 0.2
28/02:30am 6.9 4.7 5.4 90 0.7 N 6 7 3 4 1022.1 1022.2 0.2
28/02:00am 6.5 4.0 4.7 88 0.8 N 7 9 4 5 1022.1 1022.2 0.2
28/01:30am 7.2 4.4 5.3 88 0.8 N 9 9 5 5 1022.0 1022.1 0.2
28/01:00am 8.1 5.9 6.2 88 0.9 N 7 9 4 5 1022.0 1022.1 0.2
28/12:30am 8.0 5.4 6.0 87 0.9 NNE 9 9 5 5 1022.1 1022.2 0.2
28/12:00am 8.7 6.6 6.7 87 0.9 N 7 9 4 5 1022.2 1022.3 0.2
 
Date/Time
CST
Temp
°C
App
Temp
°C
Dew
Point
°C
Rel
Hum
%
Delta-T
°C
Wind Press
QNH
hPa
Press
MSL
hPa
Rain since
9am
mm
Dir  Spd
km/h
Gust
km/h
Spd
kts
Gust
kts
27/11:30pm 9.1 7.3 7.1 87 0.9 N 6 7 3 4 1022.2 1022.3 0.2
27/11:00pm 9.2 7.3 7.5 89 0.8 N 7 9 4 5 1022.2 1022.3 0.2
27/10:30pm 9.1 7.3 7.1 87 0.9 N 6 7 3 4 1022.4 1022.5 0.2
27/10:00pm 9.8 8.1 7.4 85 1.1 NNE 6 9 3 5 1022.5 1022.6 0.2
27/09:30pm 9.5 7.7 7.3 86 1.0 NNE 6 7 3 4 1022.5 1022.6 0.2
27/09:00pm 10.3 8.7 8.1 86 1.1 NE 6 7 3 4 1022.2 1022.3 0.2
27/08:30pm 10.4 8.7 8.5 88 0.9 ENE 7 9 4 5 1022.0 1022.1 0.2
27/08:00pm 10.9 9.9 8.7 86 1.1 N 4 4 2 2 1022.3 1022.4 0.2
27/07:30pm 10.8 9.2 8.7 87 1.0 N 7 9 4 5 1022.2 1022.3 0.2
27/07:00pm 11.0 9.6 8.8 86 1.1 N 6 9 3 5 1022.2 1022.3 0.2
27/06:30pm 11.2 10.0 8.1 81 1.5 NNE 4 6 2 3 1021.7 1021.8 0.2
27/06:00pm 11.3 9.7 8.2 81 1.5 NNE 6 7 3 4 1021.7 1021.8 0.2
27/05:30pm 12.0 10.9 8.3 78 1.8 WSW 4 6 2 3 1021.6 1021.7 0.0
27/05:00pm 12.4 12.0 8.3 76 2.0 CALM 0 0 0 0 1021.4 1021.5 0.0
27/04:30pm 12.9 12.3 7.4 69 2.7 CALM 0 2 0 1 1021.4 1021.5 0.0
27/04:00pm 13.0 11.3 7.5 69 2.7 NNW 6 7 3 4 1021.4 1021.5 0.0
27/03:30pm 14.9 10.6 7.0 59 3.9 NNW 19 24 10 13 1021.4 1021.5 0.0
27/03:00pm 14.9 11.0 7.2 60 3.8 NNW 17 22 9 12 1021.6 1021.7 0.0
27/02:30pm 15.3 11.0 7.1 58 4.0 NNW 19 24 10 13 1021.5 1021.6 0.0
27/02:00pm 14.9 10.6 7.2 60 3.8 NNW 19 24 10 13 1021.5 1021.6 0.0
27/01:30pm 14.8 10.6 7.6 62 3.6 N 19 24 10 13 1021.9 1022.0 0.0
27/01:00pm 14.7 10.3 7.5 62 3.6 NNW 20 26 11 14 1022.3 1022.4 0.0
27/12:30pm 14.7 10.1 8.0 64 3.3 NNW 22 28 12 15 1022.7 1022.8 0.0
27/12:00pm 15.0 10.4 8.0 63 3.5 NNW 22 30 12 16 1023.0 1023.1 0.0
27/11:30am 14.1 10.5 8.3 68 2.9 N 17 22 9 12 1023.4 1023.5 0.0
27/11:00am 13.4 10.1 9.5 77 2.0 N 17 20 9 11 1023.8 1023.9 0.0
27/10:30am 12.3 9.2 8.8 79 1.7 N 15 20 8 11 1024.2 1024.3 0.0
27/10:00am 11.7 8.5 8.6 81 1.5 N 15 22 8 12 1024.4 1024.5 0.0
27/09:30am 11.0 8.2 8.4 84 1.3 NNE 13 20 7 11 1024.4 1024.5 0.0
27/09:00am 10.1 7.5 7.7 85 1.1 NE 11 17 6 9 1024.4 1024.5 0.0
27/08:30am 9.4 7.1 7.5 88 0.9 NNE 9 11 5 6 1024.2 1024.3 0.0
27/08:00am 8.7 6.7 7.0 89 0.8 NE 7 9 4 5 1024.0 1024.1 0.0
27/07:30am 8.6 6.8 7.1 90 0.7 NE 6 6 3 3 1023.8 1023.9 0.0
27/07:00am 8.3 6.3 6.9 91 0.7 NE 7 7 4 4 1023.7 1023.8 0.0
27/06:30am 8.2 5.0 6.8 91 0.6 NNE 13 20 7 11 1023.8 1023.9 0.0
27/06:00am 7.8 5.4 6.9 94 0.4 NNE 9 11 5 6 1023.9 1024.0 0.0
27/05:30am 6.4 4.2 5.5 94 0.4 NE 6 6 3 3 1023.7 1023.8 0.0
27/05:00am 5.9 4.4 5.0 94 0.4 NE 2 4 1 2 1023.8 1023.9 0.0
27/04:30am 5.7 4.6 5.0 95 0.3 CALM 0 2 0 1 1023.9 1024.0 0.0
27/04:00am 5.1 3.9 4.4 95 0.3 CALM 0 0 0 0 1024.1 1024.2 0.0
27/03:30am 4.8 3.5 3.9 94 0.4 CALM 0 2 0 1 1024.1 1024.2 0.0
27/03:00am 5.1 3.4 4.1 93 0.4 ENE 2 4 1 2 1024.2 1024.3 0.0
27/02:30am 6.0 4.9 5.1 94 0.4 CALM 0 0 0 0 1024.1 1024.2 0.0
27/02:00am 5.8 4.3 4.9 94 0.4 NE 2 4 1 2 1024.3 1024.4 0.0
27/01:30am 6.1 4.2 5.1 93 0.4 E 4 4 2 2 1024.3 1024.4 0.0
27/01:00am 6.5 4.7 5.5 93 0.4 E 4 4 2 2 1024.5 1024.6 0.0
27/12:30am 7.0 5.7 5.8 92 0.5 ENE 2 2 1 1 1024.9 1025.0 0.0
27/12:00am 7.5 6.3 6.4 93 0.5 ENE 2 4 1 2 1025.0 1025.1 0.0
 
Date/Time
CST
Temp
°C
App
Temp
°C
Dew
Point
°C
Rel
Hum
%
Delta-T
°C
Wind Press
QNH
hPa
Press
MSL
hPa
Rain since
9am
mm
Dir  Spd
km/h
Gust
km/h
Spd
kts
Gust
kts
26/11:30pm 7.3 5.7 6.2 93 0.5 E 4 6 2 3 1025.3 1025.4 0.0
26/11:00pm 6.7 5.4 5.8 94 0.4 NE 2 6 1 3 1025.4 1025.5 0.0
26/10:30pm 6.0 4.5 5.0 93 0.4 NNE 2 4 1 2 1025.8 1025.9 0.0
26/10:00pm 6.1 4.6 4.9 92 0.5 NE 2 6 1 3 1025.8 1025.9 0.0
26/09:30pm 7.1 5.8 6.0 93 0.5 N 2 6 1 3 1025.9 1026.0 0.0
26/09:00pm 6.6 5.2 5.4 92 0.5 SSE 2 4 1 2 1025.7 1025.8 0.0
26/08:30pm 6.2 3.9 5.0 92 0.5 SSE 6 7 3 4 1025.5 1025.6 0.0
26/08:00pm 7.4 6.5 6.2 92 0.5 CALM 0 0 0 0 1025.4 1025.5 0.0
26/07:30pm 6.8 5.0 5.3 90 0.7 NNW 4 6 2 3 1025.6 1025.7 0.0
26/07:00pm 6.3 4.9 3.6 83 1.1 CALM 0 0 0 0 1025.3 1025.4 0.0
26/06:30pm 9.1 8.3 6.5 84 1.2 CALM 0 0 0 0 1024.9 1025.0 0.0
26/06:00pm 9.9 9.1 6.6 80 1.5 CALM 0 0 0 0 1024.7 1024.8 0.0
26/05:30pm 11.0 10.2 6.6 74 2.1 CALM 0 0 0 0 1024.7 1024.8 0.0
26/05:00pm 11.4 10.6 6.3 71 2.4 CALM 0 0 0 0 1024.5 1024.6 0.0

Other Formats:

Comma delimited format used in spreadsheet applications
http://www.bom.gov.au/fwo/IDS60801/IDS60801.95815.axf

JavaScript Object Notation format (JSON) in row-major order
http://www.bom.gov.au/fwo/IDS60801/IDS60801.95815.json